Terminal Aerodrome Forecast
Issued by NWS Wakefield, VA

Home | Current Version | Previous Version | Text Only | Print | Product List | Glossary On
Versions: 1 2 3 4 5 6 7 8 9 10 11 12 13 14 15 16
000
FTUS41 KAKQ 211100
TAFSBY
TAF
KSBY 211134Z 2112/2212 22004KT P6SM BKN100
      TEMPO 2112/2114 5SM -SHRA
     FM211500 25006KT P6SM SCT100 BKN200
     FM212000 26004KT P6SM BKN100
     FM220200 32003KT P6SM BKN050
     FM220800 33005KT P6SM BKN030=

USA.gov is the U.S. government's official web portal to all federal, state and local government web resources and services.